Time;durP1;ratioP1;P1;durP2;ratioP2;P2;SDS_P1;SDS_P2;PMS_P1;PMS_P2;Temp;Humidity;BMP_temperature;BMP_pressure;BME280_temperature;BME280_humidity;BME280_pressure;Samples;Min_cycle;Max_cycle;Signal;HPM_P1;HPM_P2
2022/08/04 11:33:36;;;;;;;3.40;3.20;;;;;;;;;;6275883;22;20034;-88
2022/08/04 11:36:27;;;;;;;3.75;3.42;;;;;;;;;;6306968;22;20020;-88
2022/08/04 11:39:29;;;;;;;4.00;3.70;;;;;;;;;;6266509;22;20008;-89
2022/08/04 11:42:13;;;;;;;3.05;2.85;;;;;;;;;;6259935;22;20016;-90
2022/08/04 15:56:22;;;;;;;4.22;3.50;;;;;;;;;;6266088;22;20078;-90
2022/08/04 15:58:51;;;;;;;5.75;3.13;;;;;;;;;;6246988;23;20016;-89
2022/08/04 16:01:18;;;;;;;3.45;3.05;;;;;;;;;;6247264;23;20054;-88
2022/08/04 16:03:49;;;;;;;3.53;3.17;;;;;;;;;;6223290;23;20030;-90
2022/08/04 16:06:15;;;;;;;3.38;3.05;;;;;;;;;;6216322;23;20444;-92
2022/08/04 16:08:46;;;;;;;5.15;3.35;;;;;;;;;;6216782;23;20001;-85
2022/08/04 16:11:23;;;;;;;5.10;3.72;;;;;;;;;;6216601;23;20001;-91
2022/08/04 16:14:01;;;;;;;3.55;3.00;;;;;;;;;;6216439;23;20079;-92
2022/08/04 16:16:35;;;;;;;3.70;2.85;;;;;;;;;;6215560;23;20015;-91
2022/08/04 16:19:09;;;;;;;5.00;3.03;;;;;;;;;;6217250;23;20001;-93
2022/08/04 16:21:51;;;;;;;3.30;3.00;;;;;;;;;;6217135;23;20436;-91
2022/08/04 16:24:20;;;;;;;4.10;3.70;;;;;;;;;;6218361;23;20297;-91
2022/08/04 16:26:48;;;;;;;4.57;4.18;;;;;;;;;;6217509;23;20427;-92
2022/08/04 16:29:29;;;;;;;5.13;4.68;;;;;;;;;;6217530;23;20009;-93
2022/08/04 16:32:03;;;;;;;5.30;4.80;;;;;;;;;;6219001;23;20009;-92
2022/08/04 16:34:32;;;;;;;3.97;3.67;;;;;;;;;;6216885;23;20005;-92
2022/08/04 16:36:58;;;;;;;;;;;;;;;;;;6217724;23;20016;-93
2022/08/04 16:39:23;;;;;;;5.32;3.47;;;;;;;;;;6217734;23;19910;-91
2022/08/04 16:41:49;;;;;;;3.75;3.30;;;;;;;;;;6216848;23;20063;-88
2022/08/04 16:44:30;;;;;;;5.07;3.30;;;;;;;;;;6219229;23;20419;-93
2022/08/04 16:46:58;;;;;;;5.22;3.40;;;;;;;;;;6219311;23;20000;-92
2022/08/04 16:49:25;;;;;;;4.13;3.10;;;;;;;;;;6219538;23;20004;-89
2022/08/04 16:51:51;;;;;;;4.82;3.47;;;;;;;;;;6219425;23;20008;-93
2022/08/04 16:54:18;;;;;;;3.28;2.67;;;;;;;;;;6220377;23;20058;-92
2022/08/04 16:56:45;;;;;;;4.50;3.40;;;;;;;;;;6219695;23;20015;-90
2022/08/04 16:59:12;;;;;;;3.67;3.38;;;;;;;;;;6219253;23;20020;-92
2022/08/04 17:01:46;;;;;;;4.30;3.92;;;;;;;;;;6219346;23;20032;-92
2022/08/04 17:04:12;;;;;;;5.00;3.25;;;;;;;;;;6220191;23;20005;-92
2022/08/04 17:06:42;;;;;;;4.38;3.45;;;;;;;;;;6222072;23;20551;-95
2022/08/04 17:09:16;;;;;;;5.18;3.67;;;;;;;;;;6222615;23;20012;-95
2022/08/04 17:11:43;;;;;;;4.15;3.85;;;;;;;;;;6218939;23;20001;-92
2022/08/04 17:14:09;;;;;;;7.25;6.13;;;;;;;;;;6219417;23;20000;-94
2022/08/04 17:16:41;;;;;;;4.00;3.60;;;;;;;;;;6218999;23;20455;-90
2022/08/04 17:19:08;;;;;;;4.68;4.28;;;;;;;;;;6218592;23;19996;-89
2022/08/04 17:21:35;;;;;;;5.15;4.75;;;;;;;;;;6218868;23;20008;-91
2022/08/04 17:24:03;;;;;;;4.53;4.13;;;;;;;;;;6218168;23;20004;-91
2022/08/04 17:26:32;;;;;;;4.10;3.80;;;;;;;;;;6218282;23;20008;-87
2022/08/04 17:28:59;;;;;;;5.38;3.85;;;;;;;;;;6219419;23;20014;-93
2022/08/04 17:31:27;;;;;;;3.95;3.65;;;;;;;;;;6218852;23;20063;-94
2022/08/04 17:33:55;;;;;;;4.50;3.75;;;;;;;;;;6218704;23;20004;-91
2022/08/04 17:36:25;;;;;;;3.97;3.67;;;;;;;;;;6218940;23;20004;-91
2022/08/04 17:38:58;;;;;;;3.97;3.70;;;;;;;;;;6218939;23;20026;-94
2022/08/04 17:41:25;;;;;;;4.60;3.97;;;;;;;;;;6220838;23;20309;-88
2022/08/04 17:43:55;;;;;;;4.63;4.20;;;;;;;;;;6219639;23;20090;-92
2022/08/04 17:46:26;;;;;;;6.03;5.47;;;;;;;;;;6218634;23;20005;-93
2022/08/04 17:49:15;;;;;;;5.40;4.90;;;;;;;;;;6218661;23;20011;-94
2022/08/04 17:51:57;;;;;;;4.05;3.63;;;;;;;;;;6218546;23;20032;-92
2022/08/04 17:54:26;;;;;;;6.10;4.30;;;;;;;;;;6218102;23;20438;-92
2022/08/04 17:56:55;;;;;;;4.25;3.85;;;;;;;;;;6217719;23;20040;-92
2022/08/04 17:59:26;;;;;;;6.15;4.53;;;;;;;;;;6219602;23;20012;-95
2022/08/04 18:01:54;;;;;;;4.28;3.97;;;;;;;;;;6219826;23;20054;-94
2022/08/04 18:04:48;;;;;;;4.50;4.10;;;;;;;;;;6220163;23;20023;-94
2022/08/04 18:07:16;;;;;;;5.03;3.63;;;;;;;;;;6219190;23;20011;-90
2022/08/04 18:09:51;;;;;;;4.90;4.40;;;;;;;;;;6217453;23;20005;-89
2022/08/04 18:12:25;;;;;;;5.13;4.30;;;;;;;;;;6217279;23;20011;-88
2022/08/04 18:14:58;;;;;;;4.15;3.85;;;;;;;;;;6217423;23;20301;-87
2022/08/04 18:17:35;;;;;;;4.72;4.20;;;;;;;;;;6217427;22;20412;-88
2022/08/04 18:20:04;;;;;;;3.85;3.22;;;;;;;;;;6215410;23;20008;-87
2022/08/04 18:22:29;;;;;;;3.60;3.30;;;;;;;;;;6216761;22;20008;-88
2022/08/04 18:24:55;;;;;;;4.15;3.72;;;;;;;;;;6217265;23;19996;-89
2022/08/04 18:27:22;;;;;;;3.90;3.47;;;;;;;;;;6217355;23;20085;-90
2022/08/04 18:29:48;;;;;;;3.92;3.60;;;;;;;;;;6217103;23;20058;-88
2022/08/04 18:32:14;;;;;;;3.78;3.40;;;;;;;;;;6219103;23;20000;-91
2022/08/04 18:34:40;;;;;;;4.68;3.78;;;;;;;;;;6218025;23;20015;-90
2022/08/04 18:37:06;;;;;;;5.45;3.65;;;;;;;;;;6219957;23;20020;-90
2022/08/04 18:39:31;;;;;;;4.00;3.70;;;;;;;;;;6217800;23;20000;-93
2022/08/04 18:42:19;;;;;;;4.40;4.00;;;;;;;;;;6217876;23;20000;-88
2022/08/04 18:44:45;;;;;;;6.70;4.40;;;;;;;;;;6206075;23;20009;-90
2022/08/04 18:47:10;;;;;;;4.38;4.03;;;;;;;;;;6217740;23;20027;-92
2022/08/04 18:49:36;;;;;;;3.65;3.35;;;;;;;;;;6217771;23;20047;-91
2022/08/04 18:52:02;;;;;;;3.90;3.60;;;;;;;;;;6217173;23;20058;-91
2022/08/04 18:54:27;;;;;;;5.32;3.70;;;;;;;;;;6218093;23;20005;-90
2022/08/04 18:56:53;;;;;;;4.13;3.72;;;;;;;;;;6216796;23;20045;-88
2022/08/04 18:59:20;;;;;;;4.53;4.15;;;;;;;;;;6216788;23;20077;-92
2022/08/04 19:01:46;;;;;;;3.55;3.25;;;;;;;;;;6216858;23;20007;-86
2022/08/04 19:04:11;;;;;;;4.28;3.88;;;;;;;;;;6216858;23;20328;-93
2022/08/04 19:06:40;;;;;;;4.28;3.55;;;;;;;;;;6217657;23;20515;-90
2022/08/04 19:09:06;;;;;;;4.93;4.53;;;;;;;;;;6215912;23;20000;-92
2022/08/04 19:11:32;;;;;;;6.28;5.60;;;;;;;;;;6217344;23;20004;-89
2022/08/04 19:13:59;;;;;;;4.20;3.90;;;;;;;;;;6217371;23;20028;-91
2022/08/04 19:16:26;;;;;;;3.60;3.30;;;;;;;;;;6217498;23;20005;-91
2022/08/04 19:18:52;;;;;;;4.90;3.67;;;;;;;;;;6217107;22;20013;-90
2022/08/04 19:21:18;;;;;;;3.80;3.50;;;;;;;;;;6218311;23;20054;-92
2022/08/04 19:23:43;;;;;;;4.88;3.55;;;;;;;;;;6216984;23;20035;-91
2022/08/04 19:26:09;;;;;;;7.43;3.92;;;;;;;;;;6217575;23;20004;-93
2022/08/04 19:28:35;;;;;;;4.60;4.22;;;;;;;;;;6217292;23;20079;-92
2022/08/04 19:31:03;;;;;;;4.05;3.55;;;;;;;;;;6217201;23;20420;-90
2022/08/04 19:33:29;;;;;;;4.00;3.45;;;;;;;;;;6217206;23;20004;-92
2022/08/04 19:35:54;;;;;;;5.20;3.58;;;;;;;;;;6217038;23;20022;-90
2022/08/04 19:38:20;;;;;;;4.00;3.67;;;;;;;;;;6217379;23;20011;-93
2022/08/04 19:40:46;;;;;;;5.00;4.07;;;;;;;;;;6217614;23;20001;-93
2022/08/04 19:43:11;;;;;;;4.20;3.90;;;;;;;;;;6217355;23;20081;-93
2022/08/04 19:45:37;;;;;;;4.53;3.67;;;;;;;;;;6218111;23;20063;-94
2022/08/04 19:48:04;;;;;;;4.25;3.90;;;;;;;;;;6217348;23;20032;-88
2022/08/04 19:50:30;;;;;;;5.32;4.15;;;;;;;;;;6217521;23;20051;-92
2022/08/04 19:52:55;;;;;;;4.32;3.80;;;;;;;;;;6217330;23;20005;-90
2022/08/04 19:55:22;;;;;;;3.90;3.50;;;;;;;;;;6217473;23;20078;-92
2022/08/04 19:57:48;;;;;;;5.22;3.55;;;;;;;;;;6217277;23;20426;-90
2022/08/04 20:00:16;;;;;;;6.95;3.63;;;;;;;;;;6217717;23;20012;-87
2022/08/04 20:02:41;;;;;;;4.70;3.97;;;;;;;;;;6217559;23;20030;-88
2022/08/04 20:05:07;;;;;;;4.10;3.80;;;;;;;;;;6216856;23;20379;-86
2022/08/04 20:07:32;;;;;;;4.82;3.80;;;;;;;;;;6216685;23;20389;-89
2022/08/04 20:09:59;;;;;;;3.97;3.58;;;;;;;;;;6214870;23;20031;-88
2022/08/04 20:12:24;;;;;;;4.55;3.53;;;;;;;;;;6216812;23;20080;-88
2022/08/04 20:14:49;;;;;;;4.18;3.78;;;;;;;;;;6215371;23;20093;-90
2022/08/04 20:17:15;;;;;;;5.07;3.72;;;;;;;;;;6218225;23;20028;-89
2022/08/04 20:19:40;;;;;;;4.18;3.75;;;;;;;;;;6218814;23;20011;-87
2022/08/04 20:22:06;;;;;;;4.00;3.65;;;;;;;;;;6218228;23;20004;-88
2022/08/04 20:24:32;;;;;;;5.15;3.80;;;;;;;;;;6216637;23;20103;-86
2022/08/04 20:26:57;;;;;;;4.43;4.03;;;;;;;;;;6217984;23;20015;-86
2022/08/04 20:29:23;;;;;;;5.65;3.78;;;;;;;;;;6217941;23;20004;-85
2022/08/04 20:31:48;;;;;;;4.82;3.60;;;;;;;;;;6218049;23;20055;-86
2022/08/04 20:34:14;;;;;;;4.70;3.80;;;;;;;;;;6217967;23;20004;-86
2022/08/04 20:36:40;;;;;;;4.57;3.78;;;;;;;;;;6217767;23;20004;-86
2022/08/04 20:39:06;;;;;;;4.30;3.90;;;;;;;;;;6218209;23;20000;-86
2022/08/04 20:41:32;;;;;;;4.40;3.80;;;;;;;;;;6217975;23;20009;-85
2022/08/04 20:43:57;;;;;;;4.07;3.65;;;;;;;;;;6218029;23;20012;-85
2022/08/04 20:46:23;;;;;;;4.28;3.70;;;;;;;;;;6218072;23;20063;-88
2022/08/04 20:48:48;;;;;;;4.10;3.80;;;;;;;;;;6217828;23;20009;-87
2022/08/04 20:51:18;;;;;;;4.97;4.00;;;;;;;;;;6217713;23;20012;-88
2022/08/04 20:53:44;;;;;;;4.95;3.50;;;;;;;;;;6217961;23;20473;-88
2022/08/04 20:56:10;;;;;;;4.22;3.83;;;;;;;;;;6217994;23;20043;-86
2022/08/04 20:58:35;;;;;;;7.45;4.28;;;;;;;;;;6217898;23;20083;-88
2022/08/04 21:01:01;;;;;;;4.68;3.92;;;;;;;;;;6216185;23;20004;-87
2022/08/04 21:03:26;;;;;;;4.13;3.83;;;;;;;;;;6217768;23;20008;-89
2022/08/04 21:05:52;;;;;;;6.43;4.13;;;;;;;;;;6217814;23;20005;-86
2022/08/04 21:08:17;;;;;;;4.70;4.22;;;;;;;;;;6217734;23;20012;-87
2022/08/04 21:10:43;;;;;;;4.78;4.43;;;;;;;;;;6217738;23;20000;-86
2022/08/04 21:13:08;;;;;;;3.90;3.58;;;;;;;;;;6217339;23;20005;-86
2022/08/04 21:15:34;;;;;;;4.22;3.78;;;;;;;;;;6217639;23;20079;-86
2022/08/04 21:17:59;;;;;;;5.55;4.25;;;;;;;;;;6217606;23;20024;-86
2022/08/04 21:20:25;;;;;;;5.13;4.63;;;;;;;;;;6215893;23;20108;-86
2022/08/04 21:22:50;;;;;;;5.72;4.00;;;;;;;;;;6217773;23;20008;-86
2022/08/04 21:25:16;;;;;;;4.65;4.25;;;;;;;;;;6217936;23;20004;-87
2022/08/04 21:27:41;;;;;;;4.57;4.18;;;;;;;;;;6217605;23;20008;-87
2022/08/04 21:30:07;;;;;;;4.28;3.97;;;;;;;;;;6217652;23;20051;-87
2022/08/04 21:32:33;;;;;;;4.38;4.03;;;;;;;;;;6217187;23;20008;-86
2022/08/04 21:34:59;;;;;;;5.95;4.00;;;;;;;;;;6217592;23;20005;-86
2022/08/04 21:37:25;;;;;;;4.38;3.97;;;;;;;;;;6217798;23;20001;-85
2022/08/04 21:39:51;;;;;;;6.47;4.35;;;;;;;;;;6217242;23;20004;-87
2022/08/04 21:42:16;;;;;;;5.03;4.63;;;;;;;;;;6217709;23;20443;-87
2022/08/04 21:44:42;;;;;;;5.45;4.95;;;;;;;;;;6217511;23;20001;-87
2022/08/04 21:47:07;;;;;;;5.22;4.72;;;;;;;;;;6217518;23;20323;-87
2022/08/04 21:49:32;;;;;;;4.88;4.40;;;;;;;;;;6217055;23;20011;-87
2022/08/04 21:51:58;;;;;;;5.78;4.05;;;;;;;;;;6217624;23;20005;-87
2022/08/04 21:54:23;;;;;;;4.72;4.25;;;;;;;;;;6217629;23;20008;-85
2022/08/04 21:56:49;;;;;;;4.38;4.07;;;;;;;;;;6216891;23;20399;-85
2022/08/04 21:59:14;;;;;;;4.43;4.03;;;;;;;;;;6217504;23;20475;-87
2022/08/04 22:01:40;;;;;;;5.50;4.10;;;;;;;;;;6217162;23;20020;-86
2022/08/04 22:04:05;;;;;;;4.10;3.80;;;;;;;;;;6217235;23;20008;-87
2022/08/04 22:06:31;;;;;;;4.78;4.38;;;;;;;;;;6217142;23;20004;-86
2022/08/04 22:08:56;;;;;;;4.30;4.00;;;;;;;;;;6217042;23;20095;-87
2022/08/04 22:11:22;;;;;;;5.45;4.95;;;;;;;;;;6217218;23;20008;-87
2022/08/04 22:13:47;;;;;;;4.53;4.13;;;;;;;;;;6215590;23;20179;-86
2022/08/04 22:16:12;;;;;;;5.13;4.20;;;;;;;;;;6215293;23;20008;-86
2022/08/04 22:18:38;;;;;;;4.40;4.07;;;;;;;;;;6217021;23;20004;-88
2022/08/04 22:21:04;;;;;;;4.55;3.67;;;;;;;;;;6217272;22;20008;-86
2022/08/04 22:23:30;;;;;;;5.88;4.45;;;;;;;;;;6216884;23;20008;-83
